Time;durP1;ratioP1;P1;durP2;ratioP2;P2;SDS_P1;SDS_P2;PMS_P1;PMS_P2;Temp;Humidity;BMP_temperature;BMP_pressure;BME280_temperature;BME280_humidity;BME280_pressure;Samples;Min_cycle;Max_cycle;Signal;HPM_P1;HPM_P2
2023/05/08 00:00:38;;;;;;;3.47;2.72;;;14.40;87.20;;;;;;5097637;28;20035;-74
2023/05/08 00:03:04;;;;;;;5.85;3.80;;;14.40;86.90;;;;;;5097454;28;20038;-73
2023/05/08 00:05:29;;;;;;;4.03;3.17;;;14.40;87.00;;;;;;5101764;28;20028;-74
2023/05/08 00:08:00;;;;;;;4.45;3.33;;;14.30;87.20;;;;;;5108642;28;20035;-74
2023/05/08 00:10:26;;;;;;;3.95;3.40;;;14.20;87.30;;;;;;5109413;28;20021;-74
2023/05/08 00:12:52;;;;;;;3.47;3.17;;;14.30;88.50;;;;;;5109526;28;20050;-74
2023/05/08 00:15:17;;;;;;;6.00;3.72;;;14.20;88.00;;;;;;5110522;28;20028;-74
2023/05/08 00:17:43;;;;;;;3.05;2.75;;;14.20;88.80;;;;;;5110783;28;20024;-74
2023/05/08 00:20:09;;;;;;;3.80;2.72;;;14.20;88.10;;;;;;5110803;28;20103;-74
2023/05/08 00:22:35;;;;;;;3.22;2.90;;;14.20;88.20;;;;;;5110852;28;20024;-74
2023/05/08 00:25:00;;;;;;;3.35;3.05;;;14.30;88.30;;;;;;5110379;28;20046;-75
2023/05/08 00:27:26;;;;;;;3.20;2.42;;;14.30;89.00;;;;;;5104637;28;20021;-74
2023/05/08 00:29:51;;;;;;;9.63;2.75;;;14.40;88.00;;;;;;5096968;28;20487;-73
2023/05/08 00:32:17;;;;;;;3.97;2.63;;;14.30;87.70;;;;;;5096621;28;20028;-73
2023/05/08 00:34:42;;;;;;;2.88;2.47;;;14.30;87.70;;;;;;5096580;28;20529;-73
2023/05/08 00:37:08;;;;;;;3.75;2.88;;;14.40;87.70;;;;;;5096032;28;20400;-74
2023/05/08 00:39:34;;;;;;;3.42;2.65;;;14.40;87.70;;;;;;5096287;28;20063;-73
2023/05/08 00:41:59;;;;;;;3.13;2.50;;;14.30;87.60;;;;;;5096249;28;20046;-73
2023/05/08 00:44:25;;;;;;;2.58;2.30;;;14.30;87.50;;;;;;5096163;28;20073;-73
2023/05/08 00:46:51;;;;;;;3.17;2.88;;;14.30;87.50;;;;;;5096141;28;20078;-73
2023/05/08 00:49:17;;;;;;;2.63;2.40;;;14.30;87.60;;;;;;5096057;28;20464;-74
2023/05/08 00:51:45;;;;;;;2.95;2.53;;;14.30;87.60;;;;;;5096071;28;20056;-73
2023/05/08 00:54:11;;;;;;;3.13;2.53;;;14.30;87.70;;;;;;5095990;28;20028;-73
2023/05/08 00:56:37;;;;;;;2.55;2.35;;;14.30;87.70;;;;;;5095794;28;20054;-74
2023/05/08 00:59:07;;;;;;;2.80;2.60;;;14.40;87.60;;;;;;5095830;28;20520;-73
2023/05/08 01:01:35;;;;;;;4.10;2.50;;;14.30;87.50;;;;;;5095833;28;20024;-73
2023/05/08 01:04:04;;;;;;;3.92;2.45;;;14.30;87.60;;;;;;5095561;28;20425;-73
2023/05/08 01:06:30;;;;;;;6.50;2.70;;;14.30;87.60;;;;;;5077598;28;20430;-73
2023/05/08 01:08:56;;;;;;;3.42;3.10;;;14.30;87.60;;;;;;5095142;28;20103;-74
2023/05/08 01:11:37;;;;;;;3.15;2.85;;;14.20;87.50;;;;;;5095738;28;20031;-74
2023/05/08 01:14:18;;;;;;;3.95;3.00;;;14.30;87.70;;;;;;5095631;28;20024;-73
2023/05/08 01:16:45;;;;;;;3.40;3.10;;;14.30;87.70;;;;;;5095449;28;20032;-73
2023/05/08 01:19:29;;;;;;;3.45;3.15;;;14.30;87.70;;;;;;5095419;28;20054;-74
2023/05/08 01:22:16;;;;;;;2.97;2.70;;;14.30;87.50;;;;;;5095442;28;20097;-74
2023/05/08 01:24:54;;;;;;;3.25;2.60;;;14.30;87.40;;;;;;5043954;28;20043;-74
2023/05/08 01:27:41;;;;;;;5.32;2.95;;;14.30;87.30;;;;;;5095328;28;20024;-74
2023/05/08 01:30:45;;;;;;;4.72;3.10;;;14.30;87.40;;;;;;5095350;28;20525;-74
2023/05/08 01:33:24;;;;;;;4.82;3.97;;;14.20;87.50;;;;;;5095361;28;20145;-74
2023/05/08 01:35:55;;;;;;;4.63;3.85;;;14.30;87.50;;;;;;5094980;28;20512;-73
2023/05/08 01:38:25;;;;;;;8.43;3.60;;;14.20;87.60;;;;;;5095113;28;20024;-73
2023/05/08 01:41:13;;;;;;;4.55;3.60;;;14.20;87.80;;;;;;5095163;28;20021;-73
2023/05/08 01:44:09;;;;;;;5.70;3.50;;;14.20;88.10;;;;;;5076986;28;20392;-74
2023/05/08 01:46:35;;;;;;;;;;;14.20;88.10;;;;;;5081988;28;20086;-74
2023/05/08 01:49:29;;;;;;;;;;;14.20;88.00;;;;;;5077420;28;20372;-74
2023/05/08 01:52:27;;;;;;;3.83;2.75;;;14.20;88.10;;;;;;5081660;28;20348;-73
2023/05/08 01:54:58;;;;;;;3.70;2.70;;;14.20;88.10;;;;;;5094126;28;20035;-74
2023/05/08 01:57:27;;;;;;;3.90;2.92;;;14.20;88.10;;;;;;5094650;28;20036;-73
2023/05/08 01:59:56;;;;;;;2.70;2.50;;;14.20;88.10;;;;;;5100456;28;20432;-74
2023/05/08 02:02:22;;;;;;;2.55;2.35;;;14.20;88.20;;;;;;5094833;28;20028;-74
2023/05/08 02:04:49;;;;;;;3.63;2.55;;;14.20;88.20;;;;;;5094687;28;20024;-73
2023/05/08 02:07:15;;;;;;;3.55;2.60;;;14.20;88.20;;;;;;5094764;28;20035;-74
2023/05/08 02:09:42;;;;;;;3.28;2.40;;;14.20;88.30;;;;;;5094472;28;20016;-74
2023/05/08 02:12:08;;;;;;;3.17;2.72;;;14.20;88.30;;;;;;5076493;28;20032;-74
2023/05/08 02:14:36;;;;;;;3.88;2.70;;;14.20;88.30;;;;;;5094469;28;20031;-73
2023/05/08 02:17:02;;;;;;;2.90;2.53;;;14.20;88.20;;;;;;5094421;28;20040;-74
2023/05/08 02:19:29;;;;;;;5.00;2.55;;;14.30;88.30;;;;;;5093928;28;20078;-74
2023/05/08 02:21:55;;;;;;;4.45;2.83;;;14.30;88.40;;;;;;5094008;28;20134;-73
2023/05/08 02:24:22;;;;;;;5.03;3.60;;;14.20;88.00;;;;;;5094252;28;20027;-74
2023/05/08 02:26:50;;;;;;;4.07;3.45;;;14.20;88.10;;;;;;5094348;28;20113;-73
2023/05/08 02:29:16;;;;;;;5.13;3.42;;;14.30;88.20;;;;;;5075835;28;20024;-74
2023/05/08 02:31:45;;;;;;;6.70;3.60;;;14.30;88.30;;;;;;5094000;28;20020;-74
2023/05/08 02:34:11;;;;;;;6.30;3.70;;;14.30;88.20;;;;;;5094043;28;20024;-74
2023/05/08 02:36:38;;;;;;;5.80;3.35;;;14.30;88.10;;;;;;5093754;28;20408;-74
2023/05/08 02:39:06;;;;;;;5.97;3.50;;;14.30;88.00;;;;;;5093975;28;20403;-74
2023/05/08 02:41:33;;;;;;;4.65;3.45;;;14.40;88.00;;;;;;5093843;28;20054;-74
2023/05/08 02:43:59;;;;;;;4.88;3.20;;;14.30;87.90;;;;;;5093785;28;20480;-75
2023/05/08 02:46:35;;;;;;;4.47;3.55;;;14.40;87.70;;;;;;5093891;28;20028;-74
2023/05/08 02:49:11;;;;;;;5.78;3.47;;;14.30;87.70;;;;;;5093773;28;20016;-75
2023/05/08 02:51:49;;;;;;;6.00;2.97;;;14.40;87.80;;;;;;5094148;28;20074;-75
2023/05/08 02:54:34;;;;;;;4.57;2.92;;;14.30;87.80;;;;;;5093831;28;20027;-75
2023/05/08 02:57:13;;;;;;;2.75;2.55;;;14.30;88.00;;;;;;5093682;28;20043;-75
2023/05/08 02:59:44;;;;;;;6.32;3.20;;;14.30;88.00;;;;;;5093540;28;20024;-75
2023/05/08 03:02:16;;;;;;;3.22;2.85;;;14.30;88.00;;;;;;5093656;28;20121;-75
2023/05/08 03:04:58;;;;;;;9.60;4.65;;;14.30;87.70;;;;;;5093589;28;20380;-74
2023/05/08 03:07:26;;;;;;;9.18;4.78;;;14.30;88.60;;;;;;5093562;28;20480;-74
2023/05/08 03:10:05;;;;;;;8.02;4.28;;;14.20;87.60;;;;;;5093328;28;20024;-74
2023/05/08 03:12:35;;;;;;;8.05;4.40;;;14.20;87.80;;;;;;5093448;28;20518;-74
2023/05/08 03:15:10;;;;;;;5.03;3.85;;;14.20;88.00;;;;;;5093313;28;20058;-74
2023/05/08 03:17:38;;;;;;;3.85;3.45;;;14.20;88.10;;;;;;5093186;28;20028;-76
2023/05/08 03:20:06;;;;;;;4.03;3.38;;;14.20;88.10;;;;;;5093147;28;20045;-76
2023/05/08 03:22:35;;;;;;;3.65;3.22;;;14.20;88.20;;;;;;5093219;28;20028;-76
2023/05/08 03:25:04;;;;;;;5.75;3.00;;;14.20;88.20;;;;;;5093291;28;20068;-76
2023/05/08 03:27:30;;;;;;;4.93;3.35;;;14.20;88.30;;;;;;5093156;28;20074;-74
2023/05/08 03:29:58;;;;;;;4.22;3.08;;;14.30;88.40;;;;;;5093187;28;20020;-74
2023/05/08 03:32:26;;;;;;;5.75;2.85;;;14.30;88.50;;;;;;5093062;28;20043;-74
2023/05/08 03:34:52;;;;;;;9.85;2.70;;;14.30;88.40;;;;;;5093071;28;20444;-74
2023/05/08 03:37:18;;;;;;;3.67;2.33;;;14.30;88.50;;;;;;5098405;28;20044;-74
2023/05/08 03:39:44;;;;;;;3.15;2.75;;;14.30;88.40;;;;;;5093039;28;20422;-74
2023/05/08 03:42:19;;;;;;;3.72;3.00;;;14.30;88.30;;;;;;5094247;28;20027;-75
2023/05/08 03:44:52;;;;;;;6.40;3.03;;;14.20;88.20;;;;;;5093074;28;20025;-74
2023/05/08 03:47:19;;;;;;;4.65;2.65;;;14.30;88.40;;;;;;5093081;28;20033;-75
2023/05/08 03:49:46;;;;;;;5.78;3.00;;;14.30;88.40;;;;;;5092909;28;20105;-75
2023/05/08 03:52:13;;;;;;;3.42;2.42;;;14.30;88.40;;;;;;5092875;28;20657;-76
2023/05/08 03:54:38;;;;;;;3.75;2.47;;;14.30;88.30;;;;;;5092820;28;20032;-74
2023/05/08 03:57:04;;;;;;;4.57;2.28;;;14.30;88.30;;;;;;5092491;28;20061;-74
2023/05/08 03:59:42;;;;;;;3.47;2.88;;;14.30;88.30;;;;;;5092565;28;20016;-75
2023/05/08 04:02:19;;;;;;;3.17;2.83;;;14.20;88.30;;;;;;5092925;28;20032;-75
2023/05/08 04:04:49;;;;;;;3.30;2.60;;;14.20;88.40;;;;;;5092808;28;20383;-75
2023/05/08 04:07:25;;;;;;;3.25;2.95;;;14.20;88.50;;;;;;5092863;28;20218;-74
2023/05/08 04:10:15;;;;;;;4.30;2.50;;;14.30;88.70;;;;;;5092789;28;20012;-75
2023/05/08 04:12:50;;;;;;;5.25;2.97;;;14.20;88.60;;;;;;5092781;28;20115;-74
2023/05/08 04:15:28;;;;;;;4.30;2.70;;;14.20;88.70;;;;;;5092775;28;20027;-74
2023/05/08 04:18:02;;;;;;;4.43;2.75;;;14.30;89.00;;;;;;5092303;28;20423;-74
2023/05/08 04:20:30;;;;;;;2.92;2.72;;;14.30;88.90;;;;;;5074507;28;20055;-74
2023/05/08 04:22:57;;;;;;;5.22;3.20;;;14.30;88.80;;;;;;5092747;28;20027;-74
2023/05/08 04:25:24;;;;;;;3.55;2.90;;;14.40;88.90;;;;;;5092571;28;20025;-74
2023/05/08 04:27:51;;;;;;;4.43;3.13;;;14.30;88.90;;;;;;5092579;28;20043;-74
2023/05/08 04:30:17;;;;;;;2.55;2.35;;;14.30;88.90;;;;;;5092652;28;20058;-74
2023/05/08 04:32:43;;;;;;;3.10;2.80;;;14.40;88.90;;;;;;5092480;28;20048;-74
2023/05/08 04:35:09;;;;;;;5.95;2.85;;;14.40;88.90;;;;;;5092342;28;20024;-73
2023/05/08 04:37:35;;;;;;;4.28;3.55;;;14.40;88.80;;;;;;5092397;28;20481;-74
2023/05/08 04:40:01;;;;;;;3.28;2.97;;;14.40;88.80;;;;;;5092456;28;20030;-74
2023/05/08 04:42:27;;;;;;;3.33;2.97;;;14.50;88.90;;;;;;5092656;28;20385;-74
2023/05/08 04:44:53;;;;;;;5.07;3.25;;;14.50;88.80;;;;;;5095634;28;20423;-74
2023/05/08 04:47:19;;;;;;;5.05;3.35;;;14.50;88.70;;;;;;5096230;28;20020;-74
2023/05/08 04:49:45;;;;;;;3.65;2.67;;;14.50;88.00;;;;;;5096157;28;20107;-74
2023/05/08 04:52:11;;;;;;;3.55;2.83;;;14.60;87.90;;;;;;5095956;28;20060;-74
2023/05/08 04:54:36;;;;;;;3.25;2.67;;;14.60;87.80;;;;;;5095916;28;20081;-74
2023/05/08 04:57:02;;;;;;;2.70;2.50;;;14.60;87.40;;;;;;5095789;28;20032;-73
2023/05/08 04:59:28;;;;;;;3.10;2.80;;;14.70;87.20;;;;;;5095955;28;20427;-74
2023/05/08 05:01:55;;;;;;;2.92;2.70;;;14.70;86.90;;;;;;5095856;28;20031;-85
2023/05/08 05:04:21;;;;;;;3.30;2.40;;;14.70;86.50;;;;;;5096313;28;20031;-81
2023/05/08 05:06:46;;;;;;;3.58;2.70;;;14.80;86.50;;;;;;5077716;28;20028;-75
2023/05/08 05:09:12;;;;;;;2.45;2.25;;;14.80;86.30;;;;;;5095452;28;20596;-74
2023/05/08 05:11:37;;;;;;;3.47;2.53;;;14.80;86.20;;;;;;5095558;28;20063;-73
2023/05/08 05:14:03;;;;;;;2.67;2.42;;;14.80;86.10;;;;;;5095419;28;20104;-84
2023/05/08 05:16:29;;;;;;;3.90;2.83;;;14.80;86.30;;;;;;5095863;28;20417;-75
2023/05/08 05:18:54;;;;;;;4.15;3.20;;;14.80;86.30;;;;;;5095719;28;20030;-84
2023/05/08 05:21:20;;;;;;;7.05;3.80;;;14.90;86.60;;;;;;5112068;28;20487;-74
2023/05/08 05:23:46;;;;;;;4.95;3.53;;;14.90;86.80;;;;;;5095924;28;20098;-82
2023/05/08 05:26:11;;;;;;;3.63;2.88;;;14.90;86.80;;;;;;5097653;28;20354;-82
2023/05/08 05:28:37;;;;;;;6.70;3.50;;;15.00;86.90;;;;;;5097875;28;20020;-79
2023/05/08 05:31:03;;;;;;;4.25;3.25;;;15.00;86.70;;;;;;5107598;28;20035;-82
2023/05/08 05:33:28;;;;;;;6.32;3.30;;;15.10;86.80;;;;;;5113789;28;20031;-74
2023/05/08 05:35:54;;;;;;;4.25;2.80;;;15.10;86.70;;;;;;5110205;28;20044;-85
2023/05/08 05:38:19;;;;;;;3.85;3.20;;;15.10;86.50;;;;;;5097381;28;20028;-85
2023/05/08 05:40:45;;;;;;;4.70;3.08;;;15.20;86.30;;;;;;5097506;28;20024;-87
2023/05/08 05:43:11;;;;;;;5.32;2.45;;;15.20;86.00;;;;;;5096978;28;20092;-87
2023/05/08 05:45:37;;;;;;;2.88;2.35;;;15.20;85.80;;;;;;5096472;28;20035;-85
2023/05/08 05:48:02;;;;;;;2.58;2.28;;;15.20;85.60;;;;;;5096242;28;20451;-84
2023/05/08 05:50:28;;;;;;;4.40;2.25;;;15.20;85.40;;;;;;5097668;28;20028;-83
2023/05/08 05:52:54;;;;;;;3.40;2.92;;;15.30;85.40;;;;;;5080156;28;20461;-81
2023/05/08 05:55:20;;;;;;;4.25;2.92;;;15.30;85.00;;;;;;5079207;28;20027;-87
2023/05/08 05:57:47;;;;;;;4.10;3.30;;;15.30;84.70;;;;;;5096971;28;20039;-85
2023/05/08 06:00:12;;;;;;;4.10;3.00;;;15.30;84.60;;;;;;5096887;28;20065;-88
2023/05/08 06:02:39;;;;;;;2.55;2.35;;;15.30;84.40;;;;;;5098467;28;20032;-89
2023/05/08 06:05:05;;;;;;;4.38;3.28;;;15.30;83.70;;;;;;5079625;28;20552;-89
2023/05/08 06:07:30;;;;;;;7.25;3.90;;;15.20;83.60;;;;;;5096827;28;20158;-84
2023/05/08 06:09:56;;;;;;;4.68;3.65;;;15.20;83.80;;;;;;5078004;28;20046;-90
2023/05/08 06:12:22;;;;;;;11.63;4.20;;;15.20;84.00;;;;;;5096984;28;20027;-84
2023/05/08 06:14:50;;;;;;;17.05;4.03;;;15.30;84.60;;;;;;5097282;28;20043;-82
2023/05/08 06:17:18;;;;;;;9.48;3.15;;;15.50;88.30;;;;;;5094519;28;20103;-76
2023/05/08 06:19:49;;;;;;;4.00;2.40;;;15.70;86.00;;;;;;5094101;28;20468;-76
2023/05/08 06:22:16;;;;;;;2.90;1.88;;;15.80;83.30;;;;;;5094268;28;20031;-77
2023/05/08 06:24:42;;;;;;;6.85;2.05;;;15.80;82.50;;;;;;5094260;28;20016;-76
2023/05/08 06:27:08;;;;;;;16.90;2.88;;;15.90;82.20;;;;;;5094295;28;20039;-76
2023/05/08 06:29:33;;;;;;;4.47;1.80;;;15.90;81.80;;;;;;5095323;28;20043;-76
2023/05/08 06:31:59;;;;;;;2.33;1.83;;;15.90;81.90;;;;;;5094055;28;20063;-77
2023/05/08 06:34:24;;;;;;;2.90;1.80;;;16.10;81.80;;;;;;5093771;28;20099;-76
2023/05/08 06:36:50;;;;;;;3.60;2.05;;;16.10;81.20;;;;;;5093854;28;20404;-76
2023/05/08 06:39:15;;;;;;;4.57;1.95;;;16.20;80.80;;;;;;5093989;28;20492;-75
2023/05/08 06:41:41;;;;;;;2.40;2.17;;;16.40;80.20;;;;;;5093191;28;20081;-75
2023/05/08 06:44:07;;;;;;;7.68;2.13;;;16.40;79.80;;;;;;5094268;28;20125;-76
2023/05/08 06:46:32;;;;;;;2.50;2.30;;;16.50;78.40;;;;;;5093862;28;20096;-76
2023/05/08 06:48:58;;;;;;;3.15;2.40;;;16.60;78.20;;;;;;5093769;28;20024;-76
2023/05/08 06:51:23;;;;;;;3.08;2.58;;;16.70;78.10;;;;;;5093615;28;20484;-76
2023/05/08 06:53:49;;;;;;;2.67;1.63;;;16.80;77.30;;;;;;5109256;28;20025;-75
2023/05/08 06:56:15;;;;;;;2.15;1.83;;;16.90;76.50;;;;;;5094014;28;20044;-75
2023/05/08 06:58:40;;;;;;;3.85;2.10;;;16.90;76.00;;;;;;5097132;28;20059;-74
2023/05/08 07:01:06;;;;;;;3.70;1.92;;;16.90;76.00;;;;;;5093413;28;20062;-75
2023/05/08 07:03:32;;;;;;;2.92;2.03;;;17.10;76.00;;;;;;5094204;28;20024;-75
2023/05/08 07:05:57;;;;;;;4.63;1.80;;;17.20;75.50;;;;;;5093073;28;20101;-75
2023/05/08 07:08:23;;;;;;;2.03;1.67;;;17.40;75.00;;;;;;5093254;28;20031;-77
2023/05/08 07:10:48;;;;;;;2.42;1.73;;;17.50;74.70;;;;;;5093498;28;20053;-75
2023/05/08 07:13:18;;;;;;;5.45;2.03;;;17.70;74.40;;;;;;5093236;28;20051;-76
2023/05/08 07:15:44;;;;;;;2.47;2.28;;;17.60;74.20;;;;;;5103641;28;20095;-77
2023/05/08 07:18:10;;;;;;;3.85;2.40;;;17.60;73.80;;;;;;5104638;28;20055;-76
2023/05/08 07:20:35;;;;;;;7.38;5.40;;;17.30;74.80;;;;;;5102959;28;20032;-75
2023/05/08 07:23:01;;;;;;;2.78;2.30;;;17.20;74.60;;;;;;5105434;28;20020;-75
2023/05/08 07:25:27;;;;;;;7.47;2.33;;;17.00;75.30;;;;;;5105252;28;20020;-77
2023/05/08 07:27:52;;;;;;;3.05;2.55;;;16.90;76.00;;;;;;5094442;28;20096;-85
2023/05/08 07:30:18;;;;;;;2.83;2.08;;;16.80;76.10;;;;;;5097142;28;20423;-86
2023/05/08 07:32:44;;;;;;;3.40;2.55;;;16.60;76.20;;;;;;5078467;28;20039;-81
2023/05/08 07:35:11;;;;;;;4.20;2.05;;;16.60;77.50;;;;;;5095666;28;20031;-87
2023/05/08 07:37:37;;;;;;;5.30;2.55;;;16.50;78.30;;;;;;5077283;28;20396;-83
2023/05/08 07:40:03;;;;;;;4.55;2.40;;;16.40;78.80;;;;;;5094989;28;20103;-87
2023/05/08 07:42:29;;;;;;;2.72;2.50;;;16.40;79.10;;;;;;5094369;28;20055;-86
2023/05/08 07:44:54;;;;;;;4.68;2.75;;;16.30;79.50;;;;;;5094631;28;20376;-86
2023/05/08 07:47:20;;;;;;;6.03;3.00;;;16.20;79.00;;;;;;5094503;28;20020;-85
2023/05/08 07:49:45;;;;;;;2.40;2.20;;;16.20;78.70;;;;;;5093967;28;20020;-86
2023/05/08 07:52:11;;;;;;;2.80;2.40;;;16.30;79.00;;;;;;5094639;28;20034;-85
2023/05/08 07:54:37;;;;;;;2.88;2.38;;;16.40;78.90;;;;;;5094701;28;20476;-86
2023/05/08 07:57:02;;;;;;;4.82;2.78;;;16.50;78.90;;;;;;5094891;28;20039;-84
2023/05/08 07:59:28;;;;;;;3.45;2.60;;;16.20;79.00;;;;;;5095227;28;20025;-80
2023/05/08 08:01:53;;;;;;;3.50;2.88;;;16.30;79.30;;;;;;5094468;28;20133;-83
2023/05/08 08:04:19;;;;;;;4.13;2.70;;;16.30;79.20;;;;;;5094552;28;20566;-87
2023/05/08 08:06:44;;;;;;;3.97;2.63;;;16.40;78.10;;;;;;5094441;28;20043;-84
2023/05/08 08:09:10;;;;;;;4.38;2.28;;;16.60;77.20;;;;;;5094523;28;20031;-85
2023/05/08 08:11:36;;;;;;;3.20;2.42;;;16.60;77.10;;;;;;5094858;28;20028;-86
2023/05/08 08:14:01;;;;;;;2.90;2.15;;;16.60;77.30;;;;;;5094110;28;20040;-84
2023/05/08 08:16:27;;;;;;;6.60;3.58;;;16.70;77.20;;;;;;5094397;28;20095;-85
2023/05/08 08:18:52;;;;;;;5.72;3.10;;;16.60;78.40;;;;;;5096255;28;20107;-85
2023/05/08 08:21:18;;;;;;;8.55;3.70;;;16.50;78.90;;;;;;5106185;28;20028;-74
2023/05/08 08:23:44;;;;;;;5.03;3.00;;;16.60;79.30;;;;;;5111670;28;20027;-84
2023/05/08 08:26:10;;;;;;;2.67;2.42;;;16.50;79.30;;;;;;5101473;28;20073;-90
2023/05/08 08:28:36;;;;;;;6.22;3.33;;;16.60;79.10;;;;;;5096487;28;20070;-80
2023/05/08 08:31:01;;;;;;;5.97;3.80;;;16.60;79.70;;;;;;5096960;28;20056;-84
2023/05/08 08:33:29;;;;;;;5.22;4.38;;;16.50;79.90;;;;;;5097380;28;20098;-88
2023/05/08 08:35:55;;;;;;;5.57;4.00;;;16.40;80.10;;;;;;5097623;28;20047;-89
2023/05/08 08:38:20;;;;;;;6.00;4.30;;;16.30;79.40;;;;;;5099317;28;20032;-91
2023/05/08 08:40:46;;;;;;;4.82;4.07;;;16.20;80.30;;;;;;5099257;28;20024;-91
2023/05/08 08:43:12;;;;;;;5.20;4.28;;;16.10;80.40;;;;;;5101420;28;20035;-89
2023/05/08 08:45:37;;;;;;;4.85;4.22;;;16.20;80.30;;;;;;5102193;28;20362;-91
2023/05/08 08:48:04;;;;;;;6.78;4.65;;;16.30;80.40;;;;;;5084730;28;20031;-91
2023/05/08 08:50:34;;;;;;;7.20;4.22;;;16.30;79.90;;;;;;5099548;28;20104;-88
2023/05/08 08:53:11;;;;;;;6.07;4.18;;;16.40;79.80;;;;;;5099323;28;20028;-86
2023/05/08 08:55:41;;;;;;;6.07;4.30;;;16.50;79.60;;;;;;5099140;28;20024;-90
2023/05/08 08:58:20;;;;;;;7.75;5.35;;;16.60;78.50;;;;;;5099086;28;20031;-87
2023/05/08 09:00:46;;;;;;;5.72;4.60;;;16.70;78.70;;;;;;5080693;28;20024;-87
2023/05/08 09:03:13;;;;;;;6.47;5.07;;;16.80;78.10;;;;;;5098453;28;20028;-90
2023/05/08 09:05:39;;;;;;;6.03;4.10;;;17.00;77.30;;;;;;5098472;28;20107;-83
2023/05/08 09:08:06;;;;;;;5.78;3.70;;;17.20;77.10;;;;;;5084605;28;20028;-86
2023/05/08 09:10:33;;;;;;;4.70;4.00;;;17.40;75.90;;;;;;5108000;28;20024;-84
2023/05/08 09:12:59;;;;;;;7.00;4.32;;;17.50;74.60;;;;;;5109966;28;20034;-86
2023/05/08 09:15:24;;;;;;;4.78;4.13;;;17.60;74.00;;;;;;5109653;28;20016;-83
2023/05/08 09:17:50;;;;;;;6.38;3.72;;;17.70;74.10;;;;;;5102998;28;20500;-89
2023/05/08 09:20:15;;;;;;;4.40;3.55;;;17.90;74.30;;;;;;5096976;28;20457;-87
2023/05/08 09:22:42;;;;;;;4.70;4.25;;;18.00;73.80;;;;;;5097798;28;20032;-89
2023/05/08 09:25:08;;;;;;;4.25;3.80;;;18.20;73.10;;;;;;5097871;28;20028;-89
2023/05/08 09:27:35;;;;;;;3.50;3.20;;;18.40;72.80;;;;;;5098647;28;20024;-87
2023/05/08 09:30:03;;;;;;;6.45;3.90;;;18.50;72.40;;;;;;5100992;28;20095;-74
2023/05/08 09:32:31;;;;;;;4.47;2.42;;;18.60;70.40;;;;;;5098896;28;20046;-83
2023/05/08 09:34:56;;;;;;;5.97;3.30;;;18.80;69.90;;;;;;5101725;28;20024;-87
2023/05/08 09:37:23;;;;;;;5.20;3.70;;;19.00;69.10;;;;;;5100727;28;20117;-77
2023/05/08 09:39:49;;;;;;;5.32;3.88;;;19.20;68.00;;;;;;5095360;28;20174;-73
2023/05/08 09:42:16;;;;;;;4.35;3.95;;;19.40;67.10;;;;;;5106066;28;20115;-77
2023/05/08 09:44:52;;;;;;;4.22;3.83;;;19.80;66.10;;;;;;5095042;28;20086;-76
2023/05/08 09:47:22;;;;;;;6.32;4.05;;;20.00;65.00;;;;;;5096608;28;20016;-76
2023/05/08 09:49:55;;;;;;;5.70;4.00;;;20.30;64.00;;;;;;5095982;28;20020;-81
2023/05/08 09:52:21;;;;;;;5.78;4.43;;;20.60;63.70;;;;;;5095458;28;20020;-73
2023/05/08 09:55:00;;;;;;;5.10;3.90;;;20.90;62.40;;;;;;5094954;28;20039;-72
2023/05/08 09:57:26;;;;;;;4.85;4.18;;;21.00;61.70;;;;;;5094822;28;20113;-79
2023/05/08 10:00:05;;;;;;;5.68;3.60;;;20.90;60.20;;;;;;5093474;28;20376;-78
2023/05/08 10:02:31;;;;;;;4.82;3.40;;;20.70;61.30;;;;;;5094932;28;20020;-78
2023/05/08 10:04:56;;;;;;;4.03;3.63;;;20.50;62.40;;;;;;5094477;28;20031;-82
2023/05/08 10:07:30;;;;;;;3.47;2.90;;;20.20;62.20;;;;;;5094499;28;20024;-75
2023/05/08 10:10:05;;;;;;;4.65;3.28;;;20.00;62.90;;;;;;5094677;28;20019;-79
2023/05/08 10:12:32;;;;;;;4.00;2.65;;;19.70;64.00;;;;;;5094176;28;20387;-77
2023/05/08 10:14:58;;;;;;;8.00;3.83;;;19.50;65.00;;;;;;5094495;28;20468;-78
2023/05/08 10:17:45;;;;;;;4.40;3.72;;;19.40;65.40;;;;;;5094127;28;20040;-82
2023/05/08 10:20:13;;;;;;;5.18;3.13;;;19.10;66.40;;;;;;5093761;28;20388;-81
2023/05/08 10:22:42;;;;;;;3.55;2.30;;;19.00;67.10;;;;;;5094243;28;20035;-77
2023/05/08 10:25:15;;;;;;;5.55;3.70;;;18.90;67.90;;;;;;5094727;28;20024;-77
2023/05/08 10:27:54;;;;;;;4.90;3.65;;;18.70;67.80;;;;;;5094043;28;20080;-73
2023/05/08 10:30:23;;;;;;;4.50;3.42;;;18.60;68.50;;;;;;5093899;28;20076;-73
2023/05/08 10:32:53;;;;;;;5.25;3.85;;;18.50;68.90;;;;;;5093786;28;20030;-74
2023/05/08 10:35:20;;;;;;;5.85;4.13;;;18.20;69.20;;;;;;5093699;28;20353;-76
2023/05/08 10:37:47;;;;;;;5.32;3.70;;;18.20;69.40;;;;;;5092334;28;20032;-73
2023/05/08 10:40:17;;;;;;;3.60;2.95;;;18.10;69.80;;;;;;5093635;28;20380;-74
2023/05/08 10:42:43;;;;;;;5.95;3.05;;;18.10;70.40;;;;;;5093322;28;20024;-74
2023/05/08 10:45:10;;;;;;;3.45;3.00;;;18.00;70.30;;;;;;5092603;28;20103;-75
2023/05/08 10:47:47;;;;;;;7.93;3.28;;;17.90;71.60;;;;;;5093477;28;20024;-75
2023/05/08 10:50:50;;;;;;;6.60;4.47;;;17.90;70.80;;;;;;5093624;28;20031;-76
2023/05/08 10:53:27;;;;;;;5.97;4.25;;;17.70;72.00;;;;;;5093626;28;20097;-75
2023/05/08 10:55:54;;;;;;;4.47;4.07;;;17.60;72.40;;;;;;5093017;28;20057;-74
2023/05/08 10:58:22;;;;;;;6.25;4.55;;;17.70;72.40;;;;;;5093564;28;20035;-79
2023/05/08 11:00:51;;;;;;;5.75;3.90;;;17.70;72.40;;;;;;5093812;28;20620;-78
2023/05/08 11:03:17;;;;;;;4.53;3.88;;;17.80;72.10;;;;;;5094131;28;20024;-76
2023/05/08 11:05:47;;;;;;;5.45;4.30;;;17.80;71.40;;;;;;5094018;28;20622;-73
2023/05/08 11:08:18;;;;;;;4.45;3.67;;;17.70;71.20;;;;;;5094846;28;20059;-72
2023/05/08 11:11:00;;;;;;;8.82;3.30;;;17.80;71.00;;;;;;5093556;28;20055;-72
2023/05/08 11:13:41;;;;;;;4.55;2.38;;;17.90;70.70;;;;;;5097724;28;20024;-72
2023/05/08 11:16:09;;;;;;;6.80;2.33;;;18.00;70.20;;;;;;5101575;28;20028;-73
2023/05/08 11:18:35;;;;;;;4.35;2.40;;;18.20;70.50;;;;;;5094965;28;20024;-70
2023/05/08 11:21:04;;;;;;;5.65;1.77;;;18.50;70.30;;;;;;5102444;28;20035;-72
2023/05/08 11:23:34;;;;;;;3.95;1.10;;;18.90;69.10;;;;;;5099435;28;20106;-73
2023/05/08 11:26:10;;;;;;;7.30;1.42;;;19.30;67.80;;;;;;5096534;28;20020;-72
2023/05/08 11:28:37;;;;;;;25.20;3.30;;;19.60;66.80;;;;;;5093227;28;20069;-71
2023/05/08 11:31:10;;;;;;;4.43;1.65;;;19.90;66.30;;;;;;5093493;28;20073;-72
2023/05/08 11:33:36;;;;;;;3.78;1.88;;;20.10;64.50;;;;;;5093017;28;20024;-78
2023/05/08 11:36:21;;;;;;;2.65;1.50;;;20.30;63.90;;;;;;5093134;28;20108;-76
2023/05/08 11:39:07;;;;;;;1.95;1.60;;;20.50;62.10;;;;;;5092172;28;20115;-83
2023/05/08 11:41:32;;;;;;;2.03;1.40;;;20.50;61.50;;;;;;5091695;28;20024;-73
2023/05/08 11:44:04;;;;;;;2.22;1.65;;;20.50;62.10;;;;;;5092888;28;20027;-76
2023/05/08 11:46:40;;;;;;;4.93;3.90;;;20.50;62.60;;;;;;5091488;28;20119;-73
2023/05/08 11:49:15;;;;;;;9.20;5.97;;;20.20;66.10;;;;;;5091483;28;20040;-73
2023/05/08 11:51:44;;;;;;;9.80;6.03;;;19.50;69.10;;;;;;5091690;28;20024;-75
2023/05/08 11:54:18;;;;;;;8.60;6.57;;;19.10;72.50;;;;;;5097171;28;20123;-76
2023/05/08 11:56:51;;;;;;;11.55;7.18;;;18.80;73.70;;;;;;5095743;28;20047;-74
2023/05/08 11:59:17;;;;;;;9.07;7.22;;;18.70;74.30;;;;;;5096394;28;20048;-76
2023/05/08 12:01:43;;;;;;;11.90;6.72;;;18.60;74.60;;;;;;5097691;28;20066;-83
2023/05/08 12:04:10;;;;;;;9.73;6.53;;;18.50;75.40;;;;;;5097024;28;20032;-79
2023/05/08 12:06:38;;;;;;;8.88;5.18;;;18.40;75.20;;;;;;5096950;28;20328;-81
2023/05/08 12:09:10;;;;;;;6.90;5.82;;;18.50;75.50;;;;;;5097287;28;20024;-77
2023/05/08 12:11:36;;;;;;;8.00;6.43;;;18.60;76.20;;;;;;5096858;28;20077;-73
2023/05/08 12:14:01;;;;;;;5.70;4.95;;;18.50;76.70;;;;;;5095671;28;20028;-74
2023/05/08 12:16:27;;;;;;;6.63;4.60;;;18.50;75.70;;;;;;5097171;28;20384;-73
2023/05/08 12:18:55;;;;;;;4.30;3.88;;;18.40;75.40;;;;;;5096883;28;20486;-77
2023/05/08 12:21:21;;;;;;;2.40;2.15;;;18.40;75.50;;;;;;5097121;28;20020;-77
2023/05/08 12:23:47;;;;;;;4.07;1.95;;;18.50;75.10;;;;;;5095841;28;20103;-81
2023/05/08 12:26:14;;;;;;;3.80;1.83;;;18.50;74.70;;;;;;5096695;28;20117;-79
2023/05/08 12:28:43;;;;;;;1.77;1.00;;;18.60;73.60;;;;;;5095706;28;20062;-80
2023/05/08 12:31:09;;;;;;;1.25;0.80;;;18.70;72.80;;;;;;5096817;28;20481;-80
2023/05/08 12:33:37;;;;;;;1.85;0.95;;;18.80;72.20;;;;;;5095236;28;20032;-77
2023/05/08 12:36:04;;;;;;;2.15;1.05;;;18.90;71.80;;;;;;5095102;28;20036;-78
2023/05/08 12:38:30;;;;;;;3.88;1.08;;;19.10;71.80;;;;;;5096443;28;20089;-77
2023/05/08 12:40:55;;;;;;;0.57;0.57;;;19.30;71.80;;;;;;5096338;28;20439;-77
2023/05/08 12:43:31;;;;;;;2.53;1.05;;;19.50;71.60;;;;;;5096227;28;20028;-74
2023/05/08 12:45:56;;;;;;;2.33;1.13;;;19.70;70.80;;;;;;5096314;28;20448;-89
2023/05/08 12:48:22;;;;;;;1.05;0.60;;;19.90;68.90;;;;;;5096177;28;20055;-77
2023/05/08 12:50:52;;;;;;;2.65;0.80;;;20.00;67.40;;;;;;5094621;28;20016;-82
2023/05/08 12:53:20;;;;;;;1.52;0.80;;;20.10;67.80;;;;;;5094690;28;20473;-76
2023/05/08 12:55:54;;;;;;;1.05;0.90;;;20.20;68.00;;;;;;5094705;28;20043;-77